Time;durP1;ratioP1;P1;durP2;ratioP2;P2;SDS_P1;SDS_P2;PMS_P1;PMS_P2;Temp;Humidity;BMP_temperature;BMP_pressure;BME280_temperature;BME280_humidity;BME280_pressure;Samples;Min_cycle;Max_cycle;Signal;HPM_P1;HPM_P2
2023/10/12 00:01:26;;;;;;;13.23;7.75;;;14.10;99.90;;;;;;4956999;29;20027;-75
2023/10/12 00:04:06;;;;;;;18.02;7.13;;;14.10;99.90;;;;;;4957329;29;20370;-75
2023/10/12 00:06:37;;;;;;;23.83;8.32;;;14.10;99.90;;;;;;4956727;29;20028;-74
2023/10/12 00:09:17;;;;;;;18.17;8.32;;;14.10;99.90;;;;;;4956284;29;20066;-74
2023/10/12 00:11:55;;;;;;;13.80;7.55;;;14.00;99.90;;;;;;4954413;29;20019;-75
2023/10/12 00:14:32;;;;;;;16.65;7.80;;;14.00;99.90;;;;;;4956859;29;20027;-74
2023/10/12 00:16:58;;;;;;;14.35;7.20;;;14.00;99.90;;;;;;4956510;29;20039;-74
2023/10/12 00:19:24;;;;;;;14.07;7.25;;;14.10;99.90;;;;;;4956802;29;20055;-75
2023/10/12 00:21:58;;;;;;;12.70;7.38;;;14.10;99.90;;;;;;4953151;29;20027;-75
2023/10/12 00:24:23;;;;;;;16.58;8.38;;;14.00;99.90;;;;;;4956418;29;20046;-74
2023/10/12 00:26:49;;;;;;;17.08;8.23;;;14.00;99.90;;;;;;4956660;29;20027;-75
2023/10/12 00:29:15;;;;;;;16.45;9.20;;;14.00;99.90;;;;;;4956595;29;20028;-75
2023/10/12 00:31:43;;;;;;;16.30;9.27;;;13.90;99.90;;;;;;4927687;29;20147;-76
2023/10/12 00:34:12;;;;;;;17.63;8.70;;;13.80;99.90;;;;;;4956499;29;20035;-76
2023/10/12 00:36:40;;;;;;;14.90;8.50;;;13.80;99.90;;;;;;4925817;29;20039;-77
2023/10/12 00:39:09;;;;;;;15.00;8.07;;;13.70;99.90;;;;;;4953374;28;20046;-75
2023/10/12 00:41:44;;;;;;;17.27;8.00;;;13.70;99.90;;;;;;4956489;29;20027;-75
2023/10/12 00:44:18;;;;;;;12.77;7.68;;;13.70;99.90;;;;;;4953401;29;20027;-75
2023/10/12 00:49:26;;;;;;;16.50;8.15;;;13.70;99.90;;;;;;4956302;29;20102;-74
2023/10/12 00:52:07;;;;;;;15.25;7.88;;;13.80;99.90;;;;;;4951125;29;20778;-75
2023/10/12 00:57:03;;;;;;;13.70;7.32;;;13.80;99.90;;;;;;4953961;29;20118;-74
2023/10/12 00:59:31;;;;;;;18.73;7.28;;;13.80;99.90;;;;;;4955518;29;20023;-75
2023/10/12 01:02:02;;;;;;;14.90;7.03;;;13.70;99.90;;;;;;4956012;29;20027;-75
2023/10/12 01:04:30;;;;;;;14.88;6.70;;;13.70;99.90;;;;;;4955368;29;20031;-76
2023/10/12 01:07:01;;;;;;;14.43;6.70;;;13.70;99.90;;;;;;4955521;29;20016;-75
2023/10/12 01:09:38;;;;;;;13.98;6.80;;;13.60;99.90;;;;;;4952658;29;20041;-75
2023/10/12 01:12:12;;;;;;;15.43;7.05;;;13.50;99.90;;;;;;4938600;29;20042;-75
2023/10/12 01:14:43;;;;;;;11.63;6.78;;;13.50;99.90;;;;;;4955065;29;20065;-75
2023/10/12 01:17:16;;;;;;;11.55;6.90;;;13.30;99.90;;;;;;4955122;29;20061;-76
2023/10/12 01:19:45;;;;;;;14.57;7.40;;;13.30;99.90;;;;;;4955845;29;20035;-75
2023/10/12 01:22:12;;;;;;;13.93;7.82;;;13.10;99.90;;;;;;4955609;29;20035;-75
2023/10/12 01:24:58;;;;;;;15.13;6.75;;;13.10;99.90;;;;;;4938221;29;20023;-75
2023/10/12 01:27:27;;;;;;;14.38;6.25;;;13.10;99.90;;;;;;4955593;29;20031;-75
2023/10/12 01:30:12;;;;;;;16.55;7.35;;;13.10;99.90;;;;;;4922174;29;20068;-76
2023/10/12 01:32:38;;;;;;;14.70;7.32;;;13.00;99.90;;;;;;4952614;29;20123;-75
2023/10/12 01:35:06;;;;;;;18.63;7.05;;;12.90;99.90;;;;;;4954502;29;20102;-75
2023/10/12 01:37:42;;;;;;;14.95;7.13;;;12.90;99.90;;;;;;4936965;29;20047;-75
2023/10/12 01:40:21;;;;;;;14.82;6.45;;;13.00;99.90;;;;;;4934187;29;20020;-76
2023/10/12 01:47:55;;;;;;;12.82;6.55;;;13.00;99.90;;;;;;4954027;29;20403;-75
2023/10/12 01:50:25;;;;;;;;;;;12.90;99.90;;;;;;4954366;28;20023;-75
2023/10/12 01:52:52;;;;;;;14.20;6.95;;;12.80;99.90;;;;;;4955231;29;19910;-76
2023/10/12 01:55:30;;;;;;;12.63;6.72;;;12.80;99.90;;;;;;4941141;29;20058;-75
2023/10/12 01:57:56;;;;;;;12.48;5.72;;;12.80;99.90;;;;;;4951073;29;20047;-75
2023/10/12 02:00:30;;;;;;;12.32;6.28;;;12.70;99.90;;;;;;4955070;29;20027;-75
2023/10/12 02:06:14;;;;;;;13.77;6.22;;;12.70;99.90;;;;;;4955226;29;20031;-75
2023/10/12 02:08:40;;;;;;;12.27;6.07;;;12.70;99.90;;;;;;4944570;29;20483;-75
2023/10/12 02:13:39;;;;;;;13.30;6.55;;;12.60;99.90;;;;;;4934541;29;20377;-76
2023/10/12 02:16:12;;;;;;;15.05;6.35;;;12.50;99.90;;;;;;4954639;29;20058;-75
2023/10/12 02:18:39;;;;;;;10.25;6.22;;;12.50;99.90;;;;;;4937701;29;20039;-74
2023/10/12 02:21:20;;;;;;;12.27;6.53;;;12.40;99.90;;;;;;4953902;28;20065;-75
2023/10/12 02:31:55;;;;;;;10.38;6.18;;;12.40;99.90;;;;;;4955233;29;20090;-75
2023/10/12 02:34:25;;;;;;;12.63;6.65;;;12.30;99.90;;;;;;4955390;29;20035;-75
2023/10/12 02:39:33;;;;;;;18.15;6.40;;;12.30;99.90;;;;;;4955011;29;20038;-74
2023/10/12 02:47:23;;;;;;;14.25;6.50;;;12.30;99.90;;;;;;4934408;29;20063;-74
2023/10/12 02:52:34;;;;;;;13.82;6.65;;;12.20;99.90;;;;;;4954824;29;20479;-75
2023/10/12 02:55:18;;;;;;;15.57;6.75;;;12.20;99.90;;;;;;4954248;29;20079;-75
2023/10/12 02:57:53;;;;;;;11.77;6.53;;;12.20;99.90;;;;;;4953607;28;20097;-75
2023/10/12 03:00:23;;;;;;;12.60;7.07;;;12.20;99.90;;;;;;4953566;29;20476;-75
2023/10/12 03:02:53;;;;;;;19.40;8.18;;;12.20;99.90;;;;;;4957505;28;20019;-75
2023/10/12 03:05:31;;;;;;;11.57;6.10;;;12.00;99.90;;;;;;4953784;29;20031;-75
2023/10/12 03:08:06;;;;;;;18.58;7.57;;;12.00;99.90;;;;;;4956349;29;20050;-75
2023/10/12 03:10:32;;;;;;;16.23;6.63;;;;;;;;;;4945862;28;20024;-75
2023/10/12 03:13:04;;;;;;;24.63;7.38;;;12.00;99.90;;;;;;4957621;29;20078;-75
2023/10/12 03:15:55;;;;;;;13.98;6.80;;;12.00;99.90;;;;;;4953622;28;20365;-75
2023/10/12 03:18:26;;;;;;;10.23;5.93;;;11.90;99.90;;;;;;4952145;29;20529;-75
2023/10/12 03:21:11;;;;;;;12.38;6.55;;;11.90;99.90;;;;;;4958523;29;20027;-75
2023/10/12 03:23:39;;;;;;;12.15;6.97;;;12.00;99.90;;;;;;4955389;29;20055;-75
2023/10/12 03:28:50;;;;;;;15.15;6.25;;;12.00;99.90;;;;;;4940254;29;20123;-75
2023/10/12 03:31:26;;;;;;;18.10;6.82;;;12.10;99.90;;;;;;4958301;29;20051;-75
2023/10/12 03:33:55;;;;;;;17.63;6.40;;;12.10;99.90;;;;;;4958096;29;20027;-75
2023/10/12 03:36:31;;;;;;;13.40;7.10;;;12.10;99.90;;;;;;4958265;29;20023;-75
2023/10/12 03:39:12;;;;;;;15.45;6.85;;;12.10;99.90;;;;;;4958225;29;20110;-76
2023/10/12 03:52:20;;;;;;;11.88;6.35;;;12.00;99.90;;;;;;4945324;29;20028;-75
2023/10/12 04:08:12;;;;;;;11.98;5.78;;;11.90;99.90;;;;;;4943433;29;20028;-76
2023/10/12 04:22:05;;;;;;;10.85;5.93;;;11.90;99.90;;;;;;4957627;29;20364;-74
2023/10/12 04:26:44;;;;;;;10.70;6.13;;;12.00;99.90;;;;;;4949853;29;20027;-74
2023/10/12 04:29:21;;;;;;;17.25;6.45;;;12.00;99.90;;;;;;4952102;29;20114;-74
2023/10/12 04:31:56;;;;;;;14.15;6.22;;;12.00;99.90;;;;;;4957377;29;20524;-77
2023/10/12 04:34:27;;;;;;;14.00;5.53;;;12.10;99.90;;;;;;4957193;29;20035;-76
2023/10/12 04:37:11;;;;;;;9.07;5.97;;;12.10;99.90;;;;;;4951544;29;20103;-76
2023/10/12 04:39:37;;;;;;;13.27;6.15;;;12.20;99.90;;;;;;4956481;29;20027;-76
2023/10/12 04:42:24;;;;;;;11.32;5.55;;;12.10;99.90;;;;;;4956715;29;20098;-75
2023/10/12 04:47:31;;;;;;;15.38;6.78;;;12.20;99.90;;;;;;4956443;28;20055;-75
2023/10/12 04:49:57;;;;;;;12.88;7.07;;;12.20;99.90;;;;;;4956659;29;20029;-76
2023/10/12 04:52:32;;;;;;;13.90;6.70;;;12.20;99.90;;;;;;4956177;29;20031;-75
2023/10/12 04:55:06;;;;;;;11.60;5.85;;;12.10;99.90;;;;;;4956396;29;20023;-76
2023/10/12 04:57:34;;;;;;;11.02;5.95;;;12.10;99.90;;;;;;4945800;29;20047;-76
2023/10/12 05:07:59;;;;;;;19.67;7.32;;;12.20;99.90;;;;;;4936387;29;20365;-75
2023/10/12 05:10:32;;;;;;;14.98;6.82;;;12.30;99.90;;;;;;4955417;29;20027;-75
2023/10/12 05:13:04;;;;;;;12.73;6.53;;;12.20;99.90;;;;;;4956207;29;20023;-76
2023/10/12 05:15:39;;;;;;;18.10;6.65;;;12.70;99.90;;;;;;4955731;28;20031;-76
2023/10/12 05:18:13;;;;;;;15.85;7.00;;;13.10;99.90;;;;;;4951618;29;20047;-76
2023/10/12 05:20:41;;;;;;;15.45;6.75;;;13.40;99.90;;;;;;4951166;29;20066;-77
2023/10/12 05:23:07;;;;;;;18.73;9.65;;;13.50;99.90;;;;;;4956425;29;20030;-77
2023/10/12 05:25:47;;;;;;;22.05;8.40;;;13.90;99.90;;;;;;4954676;29;20055;-76
2023/10/12 05:28:27;;;;;;;23.05;10.07;;;14.20;99.90;;;;;;4945905;29;20032;-77
2023/10/12 05:31:09;;;;;;;19.25;8.48;;;14.50;99.90;;;;;;4937784;29;20051;-76
2023/10/12 05:36:11;;;;;;;24.63;8.52;;;15.10;99.90;;;;;;4959475;28;20027;-75
2023/10/12 05:39:10;;;;;;;19.88;9.07;;;15.40;99.90;;;;;;4955295;29;20557;-75
2023/10/12 05:41:36;;;;;;;12.80;7.15;;;15.50;99.90;;;;;;4956909;28;20015;-75
2023/10/12 05:44:03;;;;;;;12.30;6.10;;;15.40;99.90;;;;;;4955259;29;20046;-74
2023/10/12 05:46:35;;;;;;;15.25;6.75;;;15.40;99.90;;;;;;4957244;28;20042;-75
2023/10/12 05:49:02;;;;;;;21.75;7.03;;;15.60;99.90;;;;;;4946581;28;20062;-74
2023/10/12 05:51:28;;;;;;;15.68;7.03;;;15.80;99.90;;;;;;4954366;29;20034;-75
2023/10/12 05:54:02;;;;;;;21.80;9.02;;;15.90;99.90;;;;;;4955751;29;20387;-75
2023/10/12 05:56:34;;;;;;;22.27;11.05;;;15.50;99.90;;;;;;4955340;29;20031;-75
2023/10/12 05:59:12;;;;;;;20.33;9.27;;;14.80;99.90;;;;;;4955680;29;20031;-74
2023/10/12 06:01:39;;;;;;;18.08;10.18;;;14.20;99.90;;;;;;4955174;29;20034;-76
2023/10/12 06:04:08;;;;;;;15.93;7.53;;;14.10;99.90;;;;;;4955808;29;20024;-74
2023/10/12 06:06:41;;;;;;;13.43;6.70;;;13.30;99.90;;;;;;4955391;29;20042;-74
2023/10/12 06:09:35;;;;;;;14.18;6.25;;;13.60;99.90;;;;;;4955341;29;20038;-74
2023/10/12 06:12:13;;;;;;;14.50;6.93;;;13.70;99.90;;;;;;4955225;29;20020;-74
2023/10/12 06:14:39;;;;;;;14.82;6.25;;;13.90;99.90;;;;;;4955338;29;20023;-74
2023/10/12 06:17:06;;;;;;;10.60;5.95;;;14.10;99.90;;;;;;4955492;29;20097;-74
2023/10/12 06:19:35;;;;;;;14.18;6.50;;;14.20;99.90;;;;;;4955052;29;20028;-74
2023/10/12 06:25:01;;;;;;;13.57;6.28;;;14.50;99.90;;;;;;4934216;29;20071;-75
2023/10/12 06:27:30;;;;;;;11.73;6.47;;;14.70;99.90;;;;;;4933780;29;20155;-74
2023/10/12 06:30:02;;;;;;;14.77;7.25;;;14.80;99.90;;;;;;4933985;29;20122;-75
2023/10/12 06:32:31;;;;;;;;;;;14.90;99.90;;;;;;4934289;29;20122;-75
2023/10/12 06:37:49;;;;;;;16.10;8.77;;;15.20;99.90;;;;;;4921887;29;20067;-75
2023/10/12 06:45:52;;;;;;;17.60;7.93;;;15.60;99.90;;;;;;4858301;29;20077;-75
2023/10/12 06:51:07;;;;;;;13.13;6.57;;;15.70;99.90;;;;;;4858704;29;20041;-76
2023/10/12 06:53:35;;;;;;;16.55;8.45;;;15.40;99.90;;;;;;4858436;29;20250;-75
2023/10/12 06:56:50;;;;;;;13.48;7.13;;;15.70;99.90;;;;;;4858599;29;20037;-75
2023/10/12 07:01:38;;;;;;;19.35;10.85;;;15.90;99.90;;;;;;4868675;29;20049;-76
2023/10/12 07:04:13;;;;;;;18.85;9.88;;;16.20;99.90;;;;;;4879817;29;20072;-76
2023/10/12 07:06:40;;;;;;;21.30;10.45;;;16.40;99.90;;;;;;4877068;29;20496;-75
2023/10/12 07:09:07;;;;;;;16.75;7.97;;;16.40;99.90;;;;;;4876233;29;20048;-75
2023/10/12 07:11:34;;;;;;;13.13;6.90;;;16.30;99.90;;;;;;4876834;29;20037;-75
2023/10/12 07:14:04;;;;;;;20.17;7.93;;;16.50;99.90;;;;;;4876695;29;20029;-75
2023/10/12 07:16:36;;;;;;;15.55;7.28;;;16.60;99.90;;;;;;4876298;29;20045;-75
2023/10/12 07:19:02;;;;;;;19.83;8.93;;;16.40;99.90;;;;;;4875495;29;20069;-75
2023/10/12 07:21:28;;;;;;;14.32;6.95;;;16.70;99.90;;;;;;4875357;29;20033;-74
2023/10/12 07:23:56;;;;;;;15.63;7.57;;;17.00;99.90;;;;;;4959197;28;20047;-75
2023/10/12 07:26:30;;;;;;;14.85;7.78;;;17.20;99.90;;;;;;4954611;29;20023;-74
2023/10/12 07:28:56;;;;;;;17.08;7.35;;;17.40;99.90;;;;;;4953324;29;20030;-75
2023/10/12 07:39:38;;;;;;;17.13;10.48;;;17.90;99.90;;;;;;4950349;28;20458;-75
2023/10/12 07:42:05;;;;;;;27.88;14.90;;;17.80;99.90;;;;;;4954367;28;20031;-74
2023/10/12 07:44:53;;;;;;;20.05;10.45;;;17.80;99.90;;;;;;4959175;28;20015;-75
2023/10/12 07:47:40;;;;;;;18.23;10.15;;;18.00;99.90;;;;;;4949040;28;20063;-74
2023/10/12 07:50:10;;;;;;;20.75;9.55;;;18.00;99.90;;;;;;4950608;29;20110;-74
2023/10/12 07:52:46;;;;;;;20.55;9.48;;;17.90;99.90;;;;;;4959963;28;20035;-74
2023/10/12 07:55:15;;;;;;;15.95;9.25;;;18.00;99.90;;;;;;4958473;28;20031;-74
2023/10/12 07:57:42;;;;;;;20.27;8.77;;;18.20;99.90;;;;;;4957788;29;20066;-75
2023/10/12 08:24:02;;;;;;;20.88;9.10;;;19.60;99.90;;;;;;4956986;29;20114;-75
2023/10/12 08:39:39;;;;;;;16.05;7.55;;;20.40;99.90;;;;;;4957420;29;20027;-75
2023/10/12 08:44:54;;;;;;;19.23;12.65;;;20.30;99.50;;;;;;4956848;29;20082;-75
2023/10/12 08:49:53;;;;;;;17.23;9.25;;;20.70;99.90;;;;;;4944046;29;20063;-77
2023/10/12 08:52:29;;;;;;;18.67;8.63;;;20.60;99.90;;;;;;4956849;29;20501;-74
2023/10/12 08:55:03;;;;;;;20.35;10.55;;;20.90;99.90;;;;;;4956650;29;20070;-76
2023/10/12 08:57:39;;;;;;;15.57;8.52;;;21.10;99.90;;;;;;4956769;29;20050;-77
2023/10/12 09:00:25;;;;;;;17.15;7.53;;;21.20;98.30;;;;;;4956056;28;20514;-77
2023/10/12 09:03:00;;;;;;;19.38;7.95;;;21.20;98.30;;;;;;4956700;29;20060;-74
2023/10/12 09:05:32;;;;;;;19.77;9.07;;;21.30;98.00;;;;;;4956997;29;20122;-76
2023/10/12 09:11:13;;;;;;;20.67;9.40;;;21.50;98.50;;;;;;4956768;29;19937;-77
2023/10/12 09:13:45;;;;;;;21.38;9.98;;;21.50;98.30;;;;;;4935229;29;20039;-75
2023/10/12 09:16:14;;;;;;;15.40;7.40;;;21.60;97.50;;;;;;4935072;29;20074;-75
2023/10/12 09:18:49;;;;;;;13.73;7.38;;;21.50;97.20;;;;;;4935227;29;20084;-75
2023/10/12 09:23:58;;;;;;;24.45;8.95;;;21.80;97.40;;;;;;4934825;29;20079;-75
2023/10/12 09:26:32;;;;;;;14.13;8.32;;;22.00;96.00;;;;;;4935099;29;20051;-75
2023/10/12 09:36:55;;;;;;;12.35;6.90;;;22.20;95.60;;;;;;4934650;29;20114;-74
2023/10/12 09:39:28;;;;;;;12.70;6.65;;;22.40;96.50;;;;;;4934822;29;20140;-74
2023/10/12 09:41:55;;;;;;;14.50;6.57;;;22.30;96.10;;;;;;4934711;29;20219;-74
2023/10/12 09:44:26;;;;;;;16.58;7.88;;;22.50;96.40;;;;;;4934622;29;20759;-74
2023/10/12 09:46:56;;;;;;;14.95;6.60;;;;;;;;;;4934164;29;20055;-74
2023/10/12 09:49:25;;;;;;;15.85;7.75;;;22.90;94.90;;;;;;4936268;29;20039;-78
2023/10/12 09:51:57;;;;;;;16.08;8.45;;;22.90;94.20;;;;;;4955625;29;20367;-75
2023/10/12 09:54:45;;;;;;;15.65;7.82;;;23.00;93.50;;;;;;4955743;29;20074;-76
2023/10/12 09:57:28;;;;;;;14.18;6.72;;;;;;;;;;4955914;29;20043;-75
2023/10/12 09:59:59;;;;;;;;;;;23.30;99.90;;;;;;4955988;29;20025;-78
2023/10/12 10:02:29;;;;;;;17.23;7.65;;;23.40;93.50;;;;;;4956010;29;19935;-76
2023/10/12 10:05:01;;;;;;;16.42;6.15;;;23.50;93.30;;;;;;4955322;29;20027;-75
2023/10/12 10:07:36;;;;;;;19.45;9.07;;;23.60;93.40;;;;;;4955232;29;20023;-77
2023/10/12 10:10:05;;;;;;;15.15;8.10;;;24.00;97.20;;;;;;4955505;28;20034;-76
2023/10/12 10:12:42;;;;;;;18.88;9.90;;;;;;;;;;4954989;29;20110;-75
2023/10/12 10:15:20;;;;;;;23.88;13.00;;;;;;;;;;4955137;29;20094;-76
2023/10/12 10:17:53;;;;;;;21.67;10.25;;;24.00;96.60;;;;;;4955077;29;20043;-75
2023/10/12 10:22:58;;;;;;;17.00;8.82;;;24.00;90.90;;;;;;4955147;29;20046;-78
2023/10/12 10:25:50;;;;;;;23.90;9.02;;;23.80;91.30;;;;;;4954865;29;20106;-75
2023/10/12 10:28:27;;;;;;;17.77;9.02;;;23.60;91.30;;;;;;4955100;29;20160;-76
2023/10/12 10:30:59;;;;;;;26.35;9.07;;;23.70;91.20;;;;;;4955226;29;20024;-76
2023/10/12 10:33:26;;;;;;;21.55;10.75;;;23.80;90.80;;;;;;4954910;29;20035;-75
2023/10/12 10:35:59;;;;;;;19.38;8.70;;;23.80;90.80;;;;;;4955266;29;20023;-75
2023/10/12 10:38:32;;;;;;;25.67;10.32;;;23.90;90.50;;;;;;4954816;29;20046;-75
2023/10/12 10:41:07;;;;;;;18.08;8.43;;;24.00;90.10;;;;;;4955138;29;20031;-76
2023/10/12 10:43:37;;;;;;;22.60;10.02;;;24.00;90.40;;;;;;4954922;29;20143;-76
2023/10/12 10:46:13;;;;;;;24.40;10.18;;;24.10;90.60;;;;;;4954875;29;20098;-74
2023/10/12 10:48:49;;;;;;;16.48;8.10;;;24.30;91.10;;;;;;4954962;29;20035;-76
2023/10/12 10:51:18;;;;;;;16.15;8.38;;;24.60;99.80;;;;;;4955119;29;20035;-77
2023/10/12 10:53:52;;;;;;;16.92;7.82;;;24.40;99.70;;;;;;4954935;29;20047;-74
2023/10/12 10:56:41;;;;;;;23.00;9.38;;;24.40;89.10;;;;;;4954575;29;20423;-74
2023/10/12 10:59:13;;;;;;;16.27;7.88;;;24.50;90.80;;;;;;4954684;29;20047;-74
2023/10/12 11:01:46;;;;;;;19.92;8.18;;;24.50;88.70;;;;;;4954782;29;20023;-74
2023/10/12 11:04:18;;;;;;;13.52;7.30;;;24.60;90.00;;;;;;4954644;29;20039;-74
2023/10/12 11:06:47;;;;;;;;;;;24.80;91.00;;;;;;4955469;29;20027;-74
2023/10/12 11:09:15;;;;;;;14.75;6.57;;;24.80;91.50;;;;;;4954667;29;19911;-74
2023/10/12 11:11:53;;;;;;;19.17;8.95;;;24.80;89.10;;;;;;4954807;29;20375;-76
2023/10/12 11:14:22;;;;;;;12.70;7.47;;;24.90;88.40;;;;;;4954316;29;20047;-74
2023/10/12 11:16:48;;;;;;;15.98;7.50;;;24.90;89.50;;;;;;4954814;29;20102;-74
2023/10/12 11:19:19;;;;;;;28.25;10.50;;;25.00;89.20;;;;;;4954513;29;20043;-74
2023/10/12 11:21:46;;;;;;;19.40;7.10;;;25.00;86.30;;;;;;4954650;28;20387;-74
2023/10/12 11:24:14;;;;;;;25.35;7.93;;;25.10;88.00;;;;;;4958042;29;20023;-75
2023/10/12 11:27:07;;;;;;;15.00;6.88;;;25.10;88.20;;;;;;4958431;29;20031;-74
2023/10/12 11:29:52;;;;;;;19.30;7.40;;;25.20;88.00;;;;;;4957618;29;20035;-76
2023/10/12 11:32:20;;;;;;;17.15;7.15;;;25.20;87.90;;;;;;4958104;29;20101;-76
2023/10/12 11:34:55;;;;;;;13.68;5.75;;;25.20;87.10;;;;;;4958508;29;20102;-75
2023/10/12 11:37:23;;;;;;;17.98;6.70;;;25.20;88.50;;;;;;4958014;29;20086;-75
2023/10/12 11:39:50;;;;;;;13.00;6.40;;;25.20;87.10;;;;;;4958764;29;20016;-75
2023/10/12 11:42:17;;;;;;;19.42;7.93;;;25.20;87.80;;;;;;4958284;29;20039;-77
2023/10/12 11:44:45;;;;;;;18.45;6.55;;;25.30;86.80;;;;;;4957990;29;20102;-77
2023/10/12 11:47:23;;;;;;;11.13;5.72;;;25.30;85.60;;;;;;4958019;29;20443;-76
2023/10/12 11:49:55;;;;;;;17.15;6.60;;;25.40;86.00;;;;;;4957842;29;20480;-75
2023/10/12 11:52:34;;;;;;;24.52;7.03;;;25.30;84.60;;;;;;4958027;29;20035;-75
2023/10/12 11:55:08;;;;;;;14.25;6.20;;;25.30;85.10;;;;;;4957652;29;20098;-75
2023/10/12 11:57:40;;;;;;;13.32;5.53;;;25.30;84.80;;;;;;4958029;29;20451;-75
2023/10/12 12:00:29;;;;;;;14.15;5.50;;;25.30;85.00;;;;;;4945686;29;20464;-75
2023/10/12 12:02:59;;;;;;;14.40;4.53;;;25.30;86.70;;;;;;4957818;29;20031;-77
2023/10/12 12:05:33;;;;;;;13.48;4.45;;;25.30;86.50;;;;;;4957675;29;20035;-75
2023/10/12 12:08:05;;;;;;;11.77;4.97;;;25.30;84.00;;;;;;4957631;29;20494;-75
2023/10/12 12:10:40;;;;;;;13.00;5.07;;;25.40;84.60;;;;;;4957674;29;20054;-75
2023/10/12 12:13:09;;;;;;;12.43;5.63;;;25.40;83.00;;;;;;4957679;29;20045;-75
2023/10/12 12:15:44;;;;;;;13.45;5.32;;;25.40;82.70;;;;;;4957175;29;20015;-75
2023/10/12 12:18:17;;;;;;;11.48;5.70;;;25.40;81.40;;;;;;4957547;29;20051;-76
2023/10/12 12:20:44;;;;;;;17.35;6.53;;;25.70;82.60;;;;;;4957203;29;20031;-76
2023/10/12 12:23:13;;;;;;;16.27;9.68;;;25.60;80.50;;;;;;4957839;29;20110;-75
2023/10/12 12:25:40;;;;;;;12.52;7.15;;;25.60;80.60;;;;;;4957227;29;20409;-76
2023/10/12 12:28:14;;;;;;;15.20;5.88;;;25.60;80.70;;;;;;4957186;29;20023;-75
2023/10/12 12:30:46;;;;;;;15.10;6.25;;;25.60;80.10;;;;;;4957367;29;20019;-75
2023/10/12 12:33:18;;;;;;;11.70;5.75;;;25.60;80.50;;;;;;4957198;28;20094;-75
2023/10/12 12:35:48;;;;;;;;;;;25.60;81.00;;;;;;4956730;29;20364;-75
2023/10/12 12:40:59;;;;;;;16.88;7.30;;;25.80;82.10;;;;;;4957218;29;20035;-75
2023/10/12 12:43:26;;;;;;;14.27;6.97;;;25.80;81.90;;;;;;4956991;29;20024;-75
2023/10/12 12:45:54;;;;;;;14.48;6.25;;;25.80;83.80;;;;;;4957133;29;20362;-75
2023/10/12 12:48:20;;;;;;;22.13;6.85;;;25.80;81.30;;;;;;4957121;29;20074;-77
2023/10/12 12:50:49;;;;;;;15.38;7.05;;;25.80;80.30;;;;;;4957215;29;20062;-75
2023/10/12 12:53:18;;;;;;;15.95;7.20;;;;;;;;;;4956858;29;20078;-75
2023/10/12 12:55:47;;;;;;;26.10;10.10;;;26.10;98.10;;;;;;4956818;29;20114;-75
2023/10/12 12:58:17;;;;;;;28.20;11.27;;;26.00;79.30;;;;;;4956675;29;20035;-75
2023/10/12 13:00:47;;;;;;;15.48;6.32;;;26.00;79.30;;;;;;4956922;29;20539;-75
2023/10/12 13:03:14;;;;;;;14.93;6.57;;;26.00;77.60;;;;;;4956602;29;20039;-75
2023/10/12 13:05:40;;;;;;;17.33;6.95;;;26.00;78.30;;;;;;4956724;29;20027;-75
2023/10/12 13:08:11;;;;;;;28.35;10.20;;;26.00;78.80;;;;;;4956598;29;20042;-76
2023/10/12 13:10:37;;;;;;;16.75;6.30;;;26.10;79.40;;;;;;4956830;29;20027;-79
2023/10/12 13:13:04;;;;;;;14.60;5.95;;;26.00;77.80;;;;;;4956104;29;20066;-76
2023/10/12 13:15:32;;;;;;;14.77;6.40;;;26.00;79.20;;;;;;4956565;29;20026;-74
2023/10/12 13:17:59;;;;;;;13.68;6.53;;;26.10;78.60;;;;;;4956398;29;20391;-77
2023/10/12 13:20:33;;;;;;;14.02;6.60;;;26.20;77.90;;;;;;4956138;29;20054;-74
2023/10/12 13:23:00;;;;;;;19.23;7.55;;;26.10;78.10;;;;;;4956656;29;20028;-75
2023/10/12 13:25:26;;;;;;;14.88;6.88;;;26.20;78.10;;;;;;4956304;29;20024;-76
2023/10/12 13:27:53;;;;;;;13.40;7.30;;;26.20;76.10;;;;;;4956246;29;20066;-75
2023/10/12 13:30:18;;;;;;;14.27;6.55;;;26.20;76.40;;;;;;4954695;29;20043;-75
2023/10/12 13:32:48;;;;;;;13.38;5.85;;;26.20;76.10;;;;;;4954226;29;20035;-77
2023/10/12 13:35:41;;;;;;;22.50;6.15;;;26.20;76.20;;;;;;4955588;29;20032;-75
2023/10/12 13:38:11;;;;;;;17.90;6.97;;;26.20;77.30;;;;;;4948881;29;20121;-74
2023/10/12 13:40:43;;;;;;;11.85;6.00;;;26.20;76.80;;;;;;4944708;28;20024;-75
2023/10/12 13:43:18;;;;;;;17.42;6.30;;;26.10;76.60;;;;;;4955134;29;20395;-75
2023/10/12 13:45:48;;;;;;;15.98;6.53;;;26.20;77.40;;;;;;4946561;29;20113;-77
2023/10/12 13:48:22;;;;;;;16.27;5.85;;;26.10;76.00;;;;;;4948996;29;20059;-77
2023/10/12 13:50:53;;;;;;;17.15;6.40;;;26.20;78.20;;;;;;4949107;29;20032;-76
2023/10/12 13:53:24;;;;;;;25.38;6.20;;;26.20;76.70;;;;;;4950318;29;20043;-74
2023/10/12 13:55:50;;;;;;;15.38;6.65;;;26.20;77.50;;;;;;4949545;29;20469;-75
2023/10/12 13:58:16;;;;;;;11.38;6.05;;;26.20;76.60;;;;;;4955775;29;20451;-74
2023/10/12 14:00:42;;;;;;;12.15;6.50;;;26.20;75.00;;;;;;4955607;29;20820;-74
2023/10/12 14:03:11;;;;;;;11.40;5.82;;;26.20;76.20;;;;;;4955625;29;20023;-74
2023/10/12 14:05:40;;;;;;;19.45;6.13;;;26.10;75.10;;;;;;4955281;29;20180;-74
2023/10/12 14:08:10;;;;;;;11.80;6.15;;;26.20;74.30;;;;;;4955718;29;20022;-74
2023/10/12 14:10:44;;;;;;;15.02;8.20;;;26.20;74.70;;;;;;4955240;29;20450;-74
2023/10/12 14:13:13;;;;;;;13.25;6.80;;;26.10;75.50;;;;;;4955267;29;20037;-75
2023/10/12 14:15:43;;;;;;;13.90;5.97;;;26.20;75.80;;;;;;4955228;29;20070;-75
2023/10/12 14:18:11;;;;;;;13.18;6.45;;;26.10;74.70;;;;;;4955532;29;20130;-75
2023/10/12 14:20:42;;;;;;;13.52;5.72;;;26.20;75.30;;;;;;4955082;29;20082;-75
2023/10/12 14:23:09;;;;;;;10.95;6.63;;;26.20;75.30;;;;;;4955498;29;20039;-75
2023/10/12 14:25:37;;;;;;;12.15;6.20;;;26.20;75.00;;;;;;4954846;29;20529;-75
2023/10/12 14:28:06;;;;;;;17.90;6.68;;;26.20;73.90;;;;;;4955320;29;20537;-75
2023/10/12 14:30:36;;;;;;;19.73;10.18;;;26.20;74.90;;;;;;4954968;29;20023;-75
2023/10/12 14:33:06;;;;;;;15.15;8.70;;;26.20;73.90;;;;;;4955189;29;20027;-75
2023/10/12 14:35:40;;;;;;;12.75;6.07;;;26.10;75.40;;;;;;4954832;29;20166;-75
2023/10/12 14:38:07;;;;;;;29.40;9.55;;;26.10;74.70;;;;;;4955023;29;20046;-75
2023/10/12 14:40:40;;;;;;;15.32;7.43;;;26.20;76.10;;;;;;4954853;29;20023;-75
2023/10/12 14:43:11;;;;;;;18.23;7.30;;;26.10;75.80;;;;;;4955236;29;20027;-75
2023/10/12 14:45:43;;;;;;;19.75;8.70;;;26.10;75.10;;;;;;4954671;29;20027;-75
2023/10/12 14:48:10;;;;;;;13.10;6.88;;;26.00;74.80;;;;;;4954429;29;20122;-75
2023/10/12 14:50:45;;;;;;;13.98;7.55;;;26.00;74.50;;;;;;4954826;29;20114;-75
2023/10/12 14:53:15;;;;;;;14.18;6.70;;;26.00;75.10;;;;;;4954794;29;20082;-75
2023/10/12 14:55:48;;;;;;;19.23;7.07;;;25.90;74.90;;;;;;4954818;29;20027;-75
2023/10/12 14:58:16;;;;;;;18.17;6.38;;;25.90;75.80;;;;;;4953871;29;20039;-75
2023/10/12 15:00:45;;;;;;;13.88;7.00;;;25.90;75.70;;;;;;4954932;29;20387;-75
2023/10/12 15:03:15;;;;;;;15.60;7.15;;;25.80;76.20;;;;;;4954925;29;20498;-75
2023/10/12 15:05:42;;;;;;;41.50;9.35;;;25.80;75.80;;;;;;4954760;29;20051;-75
2023/10/12 15:08:09;;;;;;;23.65;7.10;;;25.70;77.00;;;;;;4954872;29;20034;-75
2023/10/12 15:10:43;;;;;;;16.50;7.25;;;25.70;78.90;;;;;;4954704;29;20070;-76
2023/10/12 15:13:16;;;;;;;13.98;7.07;;;25.50;79.60;;;;;;4954525;29;20475;-75
2023/10/12 15:15:46;;;;;;;17.67;7.18;;;25.40;80.10;;;;;;4954546;29;20038;-75
2023/10/12 15:18:13;;;;;;;32.83;9.10;;;25.30;81.30;;;;;;4954551;29;20039;-76
2023/10/12 15:20:40;;;;;;;18.08;7.63;;;25.20;80.50;;;;;;4954556;29;20023;-77
2023/10/12 15:23:07;;;;;;;23.10;8.77;;;25.20;80.50;;;;;;4955081;29;20020;-75
2023/10/12 15:25:34;;;;;;;15.40;8.27;;;25.20;81.30;;;;;;4952799;29;20039;-76
2023/10/12 15:28:02;;;;;;;21.25;8.00;;;25.10;81.60;;;;;;4954470;29;20035;-75
2023/10/12 15:30:28;;;;;;;20.05;8.23;;;24.90;81.90;;;;;;4954089;29;20475;-75
2023/10/12 15:32:55;;;;;;;18.90;8.68;;;24.80;84.00;;;;;;4954605;29;20039;-74
2023/10/12 15:35:24;;;;;;;20.15;7.70;;;24.70;82.80;;;;;;4954192;29;20035;-75
2023/10/12 15:37:52;;;;;;;17.60;7.22;;;24.50;83.20;;;;;;4954377;29;20488;-76
2023/10/12 15:40:20;;;;;;;21.40;6.88;;;24.50;84.10;;;;;;4951970;29;20140;-75
2023/10/12 15:42:50;;;;;;;24.65;8.45;;;24.40;85.40;;;;;;4953751;29;20035;-75
2023/10/12 15:45:17;;;;;;;18.90;8.27;;;24.30;85.50;;;;;;4954041;29;20059;-75
2023/10/12 15:47:47;;;;;;;20.05;8.88;;;24.20;85.60;;;;;;4945974;29;20059;-74
2023/10/12 15:50:15;;;;;;;20.02;8.73;;;24.00;85.90;;;;;;4954413;29;20150;-74
2023/10/12 15:52:49;;;;;;;20.85;7.95;;;23.90;86.40;;;;;;4946833;29;20042;-74
2023/10/12 15:55:22;;;;;;;30.73;8.30;;;23.70;86.20;;;;;;4942856;29;20043;-75
2023/10/12 15:57:49;;;;;;;39.38;11.45;;;23.60;86.70;;;;;;4941597;29;20183;-74